createdAt,value
2017-06-14T00:00:47.496Z,0
2017-06-14T00:01:47.475Z,0
2017-06-14T00:02:47.202Z,0
2017-06-14T00:03:47.431Z,0
2017-06-14T00:04:47.413Z,0
2017-06-14T00:05:47.396Z,0
2017-06-14T00:06:47.369Z,0
2017-06-14T00:07:47.351Z,0
2017-06-14T00:08:47.324Z,0
2017-06-14T00:09:47.309Z,0
2017-06-14T00:10:47.332Z,0
2017-06-14T00:11:46.960Z,0
2017-06-14T00:12:47.248Z,0
2017-06-14T00:13:47.224Z,0
2017-06-14T00:14:47.205Z,0
2017-06-14T00:15:47.236Z,0
2017-06-14T00:16:46.853Z,0
2017-06-14T00:17:47.150Z,0
2017-06-14T00:18:47.118Z,0
2017-06-14T00:19:47.099Z,0
2017-06-14T00:20:46.784Z,0
2017-06-14T00:21:47.052Z,0
2017-06-14T00:22:47.059Z,0
2017-06-14T00:23:47.008Z,0
2017-06-14T00:24:46.991Z,0
2017-06-14T00:25:46.970Z,0
2017-06-14T00:26:46.946Z,0
2017-06-14T00:27:46.975Z,0
2017-06-14T00:28:46.945Z,0
2017-06-14T00:29:46.891Z,0
2017-06-14T00:30:46.857Z,0
2017-06-14T00:31:46.827Z,0
2017-06-14T00:32:46.504Z,0
2017-06-14T00:33:46.796Z,0
2017-06-14T00:34:46.726Z,0
2017-06-14T00:35:46.862Z,0
2017-06-14T00:36:46.728Z,0
2017-06-14T00:37:46.715Z,0
2017-06-14T00:38:46.684Z,0
2017-06-14T00:39:46.665Z,0
2017-06-14T00:40:46.640Z,0
2017-06-14T00:41:46.630Z,0
2017-06-14T00:42:46.701Z,0
2017-06-14T00:43:46.576Z,0
2017-06-14T00:44:46.558Z,0
2017-06-14T00:45:46.543Z,0
2017-06-14T00:46:46.267Z,0
2017-06-14T00:47:46.491Z,0
2017-06-14T00:48:46.472Z,0
2017-06-14T00:49:46.445Z,0
2017-06-14T00:50:46.429Z,0
2017-06-14T00:51:46.409Z,0
2017-06-14T00:52:46.387Z,0
2017-06-14T00:53:46.418Z,0
2017-06-14T00:54:46.344Z,0
2017-06-14T00:55:46.319Z,0
2017-06-14T00:56:46.296Z,0
2017-06-14T00:57:46.285Z,0
2017-06-14T00:58:46.257Z,0
2017-06-14T00:59:46.229Z,0
2017-06-14T01:00:46.215Z,0
2017-06-14T01:01:46.196Z,0
2017-06-14T01:02:46.173Z,0
2017-06-14T01:03:45.847Z,0
2017-06-14T01:04:46.129Z,0
2017-06-14T01:05:46.106Z,0
2017-06-14T01:06:46.086Z,0
2017-06-14T01:07:46.065Z,0
2017-06-14T01:08:45.749Z,0
2017-06-14T01:09:46.118Z,0
2017-06-14T01:10:46.005Z,0
2017-06-14T01:11:45.982Z,0
2017-06-14T01:12:45.955Z,0
2017-06-14T01:13:45.933Z,0
2017-06-14T01:14:45.970Z,0
2017-06-14T01:15:45.897Z,0
2017-06-14T01:16:45.868Z,0
2017-06-14T01:17:45.844Z,0
2017-06-14T01:18:45.882Z,0
2017-06-14T01:19:45.803Z,0
2017-06-14T01:20:45.781Z,0
2017-06-14T01:21:45.860Z,0
2017-06-14T01:22:45.738Z,0
2017-06-14T01:23:45.718Z,0
2017-06-14T01:24:45.711Z,0
2017-06-14T01:25:45.679Z,0
2017-06-14T01:26:45.656Z,0
2017-06-14T01:27:45.630Z,0
2017-06-14T01:28:45.617Z,0
2017-06-14T01:29:45.637Z,0
2017-06-14T01:30:45.568Z,0
2017-06-14T01:31:45.240Z,0
2017-06-14T01:32:45.528Z,0
2017-06-14T01:33:45.505Z,0
2017-06-14T01:34:45.484Z,0
2017-06-14T01:35:45.467Z,0
2017-06-14T01:36:45.442Z,0
2017-06-14T01:37:45.416Z,0
2017-06-14T01:38:45.449Z,0
2017-06-14T01:39:45.376Z,0
2017-06-14T01:40:45.359Z,0
2017-06-14T01:41:45.590Z,0
2017-06-14T01:42:45.305Z,0
2017-06-14T01:43:45.289Z,0
2017-06-14T01:44:45.566Z,0
2017-06-14T01:45:45.242Z,0
2017-06-14T01:46:45.465Z,0
2017-06-14T01:47:45.202Z,0
2017-06-14T01:48:45.183Z,0
2017-06-14T01:49:45.160Z,0
2017-06-14T01:50:45.138Z,0
2017-06-14T01:51:45.129Z,0
2017-06-14T01:52:45.098Z,0
2017-06-14T01:53:45.079Z,0
2017-06-14T01:54:45.052Z,0
2017-06-14T01:55:45.276Z,0
2017-06-14T01:56:45.087Z,0
2017-06-14T01:57:44.980Z,0
2017-06-14T01:58:44.965Z,0
2017-06-14T01:59:44.997Z,0
2017-06-14T02:00:44.922Z,0
2017-06-14T02:01:44.608Z,0
2017-06-14T02:02:44.928Z,0
2017-06-14T02:03:44.853Z,0
2017-06-14T02:04:44.834Z,0
2017-06-14T02:05:44.814Z,0
2017-06-14T02:06:44.785Z,0
2017-06-14T02:07:44.766Z,0
2017-06-14T02:08:44.748Z,0
2017-06-14T02:09:44.741Z,0
2017-06-14T02:10:44.710Z,0
2017-06-14T02:11:44.677Z,0
2017-06-14T02:12:44.663Z,0
2017-06-14T02:13:44.686Z,0
2017-06-14T02:14:44.664Z,0
2017-06-14T02:15:44.342Z,0
2017-06-14T02:16:44.572Z,0
2017-06-14T02:17:44.542Z,4
2017-06-14T02:18:44.222Z,4
2017-06-14T02:19:44.517Z,4
2017-06-14T02:20:44.487Z,0
2017-06-14T02:21:44.461Z,0
2017-06-14T02:22:44.434Z,4
2017-06-14T02:23:44.425Z,4
2017-06-14T02:24:44.405Z,4
2017-06-14T02:25:44.374Z,4
2017-06-14T02:26:44.359Z,4
2017-06-14T02:27:44.329Z,4
2017-06-14T02:28:44.310Z,4
2017-06-14T02:29:44.287Z,8
2017-06-14T02:30:44.270Z,4
2017-06-14T02:31:44.242Z,8
2017-06-14T02:32:43.930Z,8
2017-06-14T02:33:43.902Z,8
2017-06-14T02:34:43.875Z,8
2017-06-14T02:35:44.162Z,8
2017-06-14T02:36:43.833Z,8
2017-06-14T02:37:44.175Z,12
2017-06-14T02:38:44.095Z,16
2017-06-14T02:39:44.123Z,16
2017-06-14T02:40:43.760Z,16
2017-06-14T02:41:43.727Z,20
2017-06-14T02:42:44.009Z,24
2017-06-14T02:43:43.986Z,24
2017-06-14T02:44:44.011Z,32
2017-06-14T02:45:43.935Z,36
2017-06-14T02:46:43.920Z,36
2017-06-14T02:47:43.893Z,44
2017-06-14T02:48:43.575Z,48
2017-06-14T02:49:43.864Z,52
2017-06-14T02:50:43.844Z,56
2017-06-14T02:51:43.800Z,64
2017-06-14T02:52:43.789Z,68
2017-06-14T02:53:43.766Z,76
2017-06-14T02:54:43.748Z,84
2017-06-14T02:55:43.728Z,88
2017-06-14T02:56:43.704Z,100
2017-06-14T02:57:43.675Z,108
2017-06-14T02:58:43.657Z,116
2017-06-14T02:59:43.629Z,120
2017-06-14T03:00:43.916Z,132
2017-06-14T03:01:43.593Z,140
2017-06-14T03:02:43.567Z,152
2017-06-14T03:03:43.552Z,164
2017-06-14T03:04:43.525Z,180
2017-06-14T03:05:43.513Z,192
2017-06-14T03:06:43.475Z,208
2017-06-14T03:07:43.466Z,224
2017-06-14T03:08:43.483Z,240
2017-06-14T03:09:43.412Z,260
2017-06-14T03:10:43.402Z,276
2017-06-14T03:11:43.374Z,292
2017-06-14T03:12:43.351Z,312
2017-06-14T03:13:43.337Z,328
2017-06-14T03:14:43.306Z,352
2017-06-14T03:15:43.279Z,380
2017-06-14T03:16:43.273Z,404
2017-06-14T03:17:43.241Z,428
2017-06-14T03:18:43.225Z,456
2017-06-14T03:19:43.196Z,484
2017-06-14T03:20:43.221Z,512
2017-06-14T03:21:43.153Z,540
2017-06-14T03:22:43.132Z,576
2017-06-14T03:23:43.115Z,604
2017-06-14T03:24:43.136Z,636
2017-06-14T03:25:43.065Z,664
2017-06-14T03:26:43.046Z,700
2017-06-14T03:27:43.021Z,736
2017-06-14T03:28:43.018Z,784
2017-06-14T03:29:43.000Z,824
2017-06-14T03:30:42.959Z,864
2017-06-14T03:31:42.935Z,900
2017-06-14T03:32:42.908Z,940
2017-06-14T03:33:42.943Z,988
2017-06-14T03:34:42.868Z,1044
2017-06-14T03:35:42.849Z,1120
2017-06-14T03:36:42.832Z,1212
2017-06-14T03:37:42.803Z,1312
2017-06-14T03:38:42.783Z,1424
2017-06-14T03:39:42.810Z,1596
2017-06-14T03:40:42.743Z,1820
2017-06-14T03:41:42.714Z,1892
2017-06-14T03:42:42.698Z,1804
2017-06-14T03:43:42.671Z,1792
2017-06-14T03:44:42.654Z,1924
2017-06-14T03:45:42.629Z,2220
2017-06-14T03:46:42.617Z,2744
2017-06-14T03:47:42.603Z,3364
2017-06-14T03:48:42.625Z,3748
2017-06-14T03:49:42.546Z,3948
2017-06-14T03:50:42.519Z,4208
2017-06-14T03:51:42.494Z,4512
2017-06-14T03:52:42.477Z,4824
2017-06-14T03:53:42.449Z,4976
2017-06-14T03:54:42.330Z,4760
2017-06-14T03:55:42.406Z,4804
2017-06-14T03:56:42.387Z,5068
2017-06-14T03:57:42.370Z,5216
2017-06-14T03:58:42.341Z,5212
2017-06-14T03:59:42.327Z,5200
2017-06-14T04:00:42.302Z,5340
2017-06-14T04:01:42.279Z,5344
2017-06-14T04:02:42.262Z,5264
2017-06-14T04:03:42.246Z,5556
2017-06-14T04:04:42.213Z,6180
2017-06-14T04:05:42.243Z,6180
2017-06-14T04:06:42.390Z,5812
2017-06-14T04:07:42.154Z,5292
2017-06-14T04:08:42.205Z,4632
2017-06-14T04:09:42.113Z,4616
2017-06-14T04:10:42.090Z,4928
2017-06-14T04:11:42.078Z,5196
2017-06-14T04:12:42.055Z,5644
2017-06-14T04:13:42.022Z,5380
2017-06-14T04:14:42.005Z,5284
2017-06-14T04:15:41.982Z,5860
2017-06-14T04:16:41.959Z,5936
2017-06-14T04:17:41.947Z,6708
2017-06-14T04:18:41.920Z,7068
2017-06-14T04:19:41.905Z,8076
2017-06-14T04:20:41.886Z,8620
2017-06-14T04:21:41.866Z,8588
2017-06-14T04:22:41.895Z,8272
2017-06-14T04:23:41.815Z,7952
2017-06-14T04:24:41.803Z,7376
2017-06-14T04:25:41.790Z,9244
2017-06-14T04:26:41.762Z,9076
2017-06-14T04:27:41.741Z,9032
2017-06-14T04:28:41.714Z,9116
2017-06-14T04:29:41.700Z,9760
2017-06-14T04:30:41.676Z,9808
2017-06-14T04:31:41.351Z,10460
2017-06-14T04:32:41.639Z,10808
2017-06-14T04:33:41.616Z,10932
2017-06-14T04:34:41.596Z,11032
2017-06-14T04:35:41.582Z,11172
2017-06-14T04:36:41.557Z,10812
2017-06-14T04:37:41.533Z,11000
2017-06-14T04:38:41.522Z,11560
2017-06-14T04:39:41.495Z,11732
2017-06-14T04:40:41.474Z,11772
2017-06-14T04:41:41.712Z,11944
2017-06-14T04:42:41.433Z,11980
2017-06-14T04:43:41.418Z,11816
2017-06-14T04:44:41.394Z,11648
2017-06-14T04:45:41.383Z,12068
2017-06-14T04:46:41.352Z,12364
2017-06-14T04:47:41.339Z,12620
2017-06-14T04:48:41.316Z,12776
2017-06-14T04:49:41.307Z,12940
2017-06-14T04:50:40.991Z,13168
2017-06-14T04:51:41.272Z,13356
2017-06-14T04:52:41.251Z,13472
2017-06-14T04:53:40.631Z,13556
2017-06-14T04:54:41.206Z,13648
2017-06-14T04:55:41.188Z,13888
2017-06-14T04:56:40.927Z,14048
2017-06-14T04:57:41.161Z,14304
2017-06-14T04:58:40.832Z,14464
2017-06-14T04:59:41.113Z,14528
2017-06-14T05:00:41.096Z,14624
2017-06-14T05:01:41.127Z,14784
2017-06-14T05:02:40.462Z,14944
2017-06-14T05:03:41.035Z,14976
2017-06-14T05:04:41.078Z,15072
2017-06-14T05:05:41.004Z,15232
2017-06-14T05:06:41.010Z,15392
2017-06-14T05:07:40.966Z,15456
2017-06-14T05:08:40.955Z,15616
2017-06-14T05:09:40.933Z,15744
2017-06-14T05:10:40.913Z,16128
2017-06-14T05:11:40.902Z,16320
2017-06-14T05:12:40.930Z,16320
2017-06-14T05:13:40.862Z,16288
2017-06-14T05:14:40.844Z,16448
2017-06-14T05:15:40.823Z,16448
2017-06-14T05:16:40.860Z,16480
2017-06-14T05:17:40.790Z,16800
2017-06-14T05:18:40.475Z,17120
2017-06-14T05:19:40.805Z,17280
2017-06-14T05:20:40.743Z,17312
2017-06-14T05:21:40.730Z,17568
2017-06-14T05:22:40.700Z,17664
2017-06-14T05:23:40.691Z,17824
2017-06-14T05:24:40.716Z,18464
2017-06-14T05:25:40.665Z,18848
2017-06-14T05:26:40.633Z,18720
2017-06-14T05:27:40.622Z,18368
2017-06-14T05:28:40.605Z,18496
2017-06-14T05:29:40.590Z,19040
2017-06-14T05:30:40.274Z,19168
2017-06-14T05:31:40.560Z,18944
2017-06-14T05:32:40.560Z,19296
2017-06-14T05:33:40.521Z,19744
2017-06-14T05:34:40.552Z,19680
2017-06-14T05:35:40.505Z,19456
2017-06-14T05:36:40.479Z,20032
2017-06-14T05:37:40.462Z,21216
2017-06-14T05:38:40.443Z,21696
2017-06-14T05:39:40.428Z,21056
2017-06-14T05:40:40.415Z,20032
2017-06-14T05:41:40.395Z,19264
2017-06-14T05:42:40.084Z,18912
2017-06-14T05:43:39.783Z,18976
2017-06-14T05:44:39.463Z,19008
2017-06-14T05:45:39.752Z,19424
2017-06-14T05:46:40.329Z,20544
2017-06-14T05:47:40.366Z,21856
2017-06-14T05:48:39.689Z,22464
2017-06-14T05:49:40.280Z,22272
2017-06-14T05:50:39.969Z,22016
2017-06-14T05:51:40.253Z,22112
2017-06-14T05:52:40.236Z,22240
2017-06-14T05:53:40.229Z,22112
2017-06-14T05:54:40.200Z,21984
2017-06-14T05:55:40.188Z,23296
2017-06-14T05:56:40.171Z,25696
2017-06-14T05:57:40.154Z,26528
2017-06-14T05:58:40.141Z,25792
2017-06-14T05:59:40.133Z,25408
2017-06-14T06:00:40.119Z,26080
2017-06-14T06:01:40.154Z,26816
2017-06-14T06:02:40.136Z,26080
2017-06-14T06:03:39.775Z,24800
2017-06-14T06:04:40.061Z,25408
2017-06-14T06:05:40.048Z,27424
2017-06-14T06:06:40.033Z,27968
2017-06-14T06:07:40.014Z,27072
2017-06-14T06:08:40.012Z,28160
2017-06-14T06:09:39.986Z,28288
2017-06-14T06:10:39.973Z,25632
2017-06-14T06:11:39.963Z,25280
2017-06-14T06:12:39.942Z,27168
2017-06-14T06:13:39.933Z,25280
2017-06-14T06:14:39.915Z,22848
2017-06-14T06:15:39.908Z,25760
2017-06-14T06:16:39.890Z,28800
2017-06-14T06:17:39.882Z,27520
2017-06-14T06:18:39.867Z,26784
2017-06-14T06:19:39.855Z,27840
2017-06-14T06:20:39.894Z,28640
2017-06-14T06:21:39.832Z,28544
2017-06-14T06:22:39.534Z,29824
2017-06-14T06:23:39.847Z,31680
2017-06-14T06:24:39.790Z,31776
2017-06-14T06:25:39.474Z,30912
2017-06-14T06:26:39.767Z,28800
2017-06-14T06:27:39.448Z,27264
2017-06-14T06:28:39.743Z,27072
2017-06-14T06:29:39.726Z,28320
2017-06-14T06:30:39.702Z,30272
2017-06-14T06:31:39.699Z,31136
2017-06-14T06:32:39.740Z,30368
2017-06-14T06:33:39.670Z,29184
2017-06-14T06:34:39.668Z,29376
2017-06-14T06:35:39.643Z,31776
2017-06-14T06:36:39.635Z,34592
2017-06-14T06:37:39.617Z,36192
2017-06-14T06:38:39.609Z,34560
2017-06-14T06:39:39.596Z,32736
2017-06-14T06:40:39.621Z,30560
2017-06-14T06:41:39.573Z,29344
2017-06-14T06:42:39.565Z,30048
2017-06-14T06:43:39.552Z,31520
2017-06-14T06:44:39.544Z,32960
2017-06-14T06:45:39.584Z,33088
2017-06-14T06:46:39.517Z,32160
2017-06-14T06:47:39.203Z,31680
2017-06-14T06:48:39.189Z,31456
2017-06-14T06:49:39.480Z,34400
2017-06-14T06:50:39.519Z,36608
2017-06-14T06:51:39.466Z,38016
2017-06-14T06:52:39.454Z,38592
2017-06-14T06:53:39.445Z,38848
2017-06-14T06:54:39.471Z,38528
2017-06-14T06:55:39.410Z,38112
2017-06-14T06:56:39.399Z,37440
2017-06-14T06:57:39.439Z,36896
2017-06-14T06:58:39.377Z,36320
2017-06-14T06:59:54.281Z,36000
2017-06-14T07:00:39.358Z,36096
2017-06-14T07:01:39.368Z,36512
2017-06-14T07:02:39.034Z,38624
2017-06-14T07:03:39.320Z,40640
2017-06-14T07:04:39.507Z,42112
2017-06-14T07:05:39.305Z,41408
2017-06-14T07:06:39.341Z,33056
2017-06-14T07:07:39.325Z,36256
2017-06-14T07:08:39.263Z,35296
2017-06-14T07:09:39.259Z,33312
2017-06-14T07:10:39.236Z,34688
2017-06-14T07:11:39.222Z,36352
2017-06-14T07:12:39.271Z,40128
2017-06-14T07:13:39.208Z,43360
2017-06-14T07:14:39.209Z,48384
2017-06-14T07:15:39.185Z,47968
2017-06-14T07:16:39.176Z,44064
2017-06-14T07:17:39.469Z,37664
2017-06-14T07:18:39.458Z,40768
2017-06-14T07:19:39.192Z,40544
2017-06-14T07:20:39.437Z,43328
2017-06-14T07:21:39.119Z,36000
2017-06-14T07:22:39.166Z,41248
2017-06-14T07:23:39.108Z,42112
2017-06-14T07:24:39.094Z,37728
2017-06-14T07:25:39.387Z,37184
2017-06-14T07:26:39.064Z,37888
2017-06-14T07:27:39.067Z,39648
2017-06-14T07:28:39.105Z,44512
2017-06-14T07:29:39.039Z,48672
2017-06-14T07:30:39.079Z,51584
2017-06-14T07:31:39.018Z,52032
2017-06-14T07:32:39.005Z,51520
2017-06-14T07:33:38.991Z,49184
2017-06-14T07:34:39.034Z,49088
2017-06-14T07:35:39.278Z,50272
2017-06-14T07:36:38.972Z,53056
2017-06-14T07:37:38.950Z,55424
2017-06-14T07:38:38.647Z,56768
2017-06-14T07:39:38.932Z,56992
2017-06-14T07:40:38.630Z,42496
2017-06-14T07:41:38.922Z,51328
2017-06-14T07:42:39.205Z,53728
2017-06-14T07:43:38.903Z,56160
2017-06-14T07:44:38.893Z,56576
2017-06-14T07:45:38.879Z,58752
2017-06-14T07:46:38.876Z,61312
2017-06-14T07:47:38.868Z,62336
2017-06-14T07:48:38.915Z,62432
2017-06-14T07:49:38.848Z,60608
2017-06-14T07:50:38.829Z,56832
2017-06-14T07:51:38.830Z,53568
2017-06-14T07:52:38.818Z,52160
2017-06-14T07:53:38.821Z,52544
2017-06-14T07:54:38.827Z,56736
2017-06-14T07:55:38.797Z,61856
2017-06-14T07:56:38.813Z,64096
2017-06-14T07:57:38.774Z,64320
2017-06-14T07:58:38.763Z,61952
2017-06-14T07:59:38.753Z,56928
2017-06-14T08:00:38.756Z,52288
2017-06-14T08:01:38.744Z,50848
2017-06-14T08:02:38.787Z,51904
2017-06-14T08:03:38.739Z,54592
2017-06-14T08:04:38.770Z,60608
2017-06-14T08:05:38.415Z,63648
2017-06-14T08:06:38.401Z,66016
2017-06-14T08:07:38.696Z,66336
2017-06-14T08:08:38.686Z,63552
2017-06-14T08:09:38.678Z,59136
2017-06-14T08:10:38.692Z,55840
2017-06-14T08:11:38.664Z,54112
2017-06-14T08:12:38.647Z,54400
2017-06-14T08:13:38.697Z,55104
2017-06-14T08:14:38.640Z,58944
2017-06-14T08:15:38.689Z,62624
2017-06-14T08:16:38.379Z,65120
2017-06-14T08:17:53.270Z,65760
2017-06-14T08:18:38.609Z,64672
2017-06-14T08:19:38.608Z,61792
2017-06-14T08:20:38.600Z,55968
2017-06-14T08:21:38.642Z,56416
2017-06-14T08:22:38.577Z,56704
2017-06-14T08:23:38.294Z,56512
2017-06-14T08:24:38.568Z,57984
2017-06-14T08:25:38.559Z,59904
2017-06-14T08:26:38.541Z,60320
2017-06-14T08:27:38.538Z,60928
2017-06-14T08:28:38.538Z,60480
2017-06-14T08:29:38.273Z,59264
2017-06-14T08:30:38.578Z,59104
2017-06-14T08:31:38.514Z,60992
2017-06-14T08:32:38.502Z,64256
2017-06-14T08:33:38.501Z,65344
2017-06-14T08:34:38.491Z,67392
2017-06-14T08:35:38.488Z,68768
2017-06-14T08:36:38.493Z,72960
2017-06-14T08:37:38.472Z,75520
2017-06-14T08:38:38.174Z,77632
2017-06-14T08:39:38.447Z,81440
2017-06-14T08:40:38.440Z,84992
2017-06-14T08:41:38.446Z,88480
2017-06-14T08:42:38.133Z,90272
2017-06-14T08:43:38.477Z,90784
2017-06-14T08:44:38.445Z,88544
2017-06-14T08:45:38.461Z,83648
2017-06-14T08:46:38.397Z,76864
2017-06-14T08:47:38.396Z,74240
2017-06-14T08:48:38.381Z,75360
2017-06-14T08:49:38.445Z,78848
2017-06-14T08:50:38.381Z,81440
2017-06-14T08:51:38.364Z,82720
2017-06-14T08:52:38.365Z,80672
2017-06-14T08:53:38.371Z,77184
2017-06-14T08:54:38.425Z,71872
2017-06-14T08:55:38.330Z,68192
2017-06-14T08:56:38.331Z,66048
2017-06-14T08:57:38.326Z,65888
2017-06-14T08:58:38.021Z,68896
2017-06-14T08:59:38.361Z,73376
2017-06-14T09:00:38.298Z,77024
2017-06-14T09:01:38.355Z,79744
2017-06-14T09:02:38.291Z,81120
2017-06-14T09:03:38.286Z,80544
2017-06-14T09:04:37.672Z,78720
2017-06-14T09:05:38.267Z,75424
2017-06-14T09:06:38.266Z,71872
2017-06-14T09:07:38.305Z,67424
2017-06-14T09:08:38.562Z,66624
2017-06-14T09:09:38.248Z,67968
2017-06-14T09:10:38.241Z,70624
2017-06-14T09:11:38.281Z,73440
2017-06-14T09:12:38.247Z,77056
2017-06-14T09:13:38.225Z,80224
2017-06-14T09:14:38.312Z,82720
2017-06-14T09:15:38.211Z,82816
2017-06-14T09:16:38.208Z,82272
2017-06-14T09:17:38.203Z,82016
2017-06-14T09:18:38.184Z,80768
2017-06-14T09:19:38.185Z,81472
2017-06-14T09:20:38.185Z,81472
2017-06-14T09:21:37.917Z,81600
2017-06-14T09:22:38.215Z,81184
2017-06-14T09:23:37.853Z,80896
2017-06-14T09:24:38.151Z,80928
2017-06-14T09:25:38.136Z,81632
2017-06-14T09:26:38.134Z,82080
2017-06-14T09:27:38.133Z,81664
2017-06-14T09:28:38.134Z,81888
2017-06-14T09:29:38.115Z,80960
2017-06-14T09:30:38.144Z,79616
2017-06-14T09:31:38.106Z,76256
2017-06-14T09:32:38.145Z,74336
2017-06-14T09:33:37.785Z,74688
2017-06-14T09:34:37.777Z,73760
2017-06-14T09:35:38.072Z,75776
2017-06-14T09:36:38.072Z,77344
2017-06-14T09:37:38.068Z,76928
2017-06-14T09:38:38.053Z,74816
2017-06-14T09:39:38.053Z,72800
2017-06-14T09:40:38.051Z,71648
2017-06-14T09:41:38.084Z,71232
2017-06-14T09:42:38.028Z,71584
2017-06-14T09:43:38.069Z,74272
2017-06-14T09:44:38.013Z,78240
2017-06-14T09:45:38.021Z,79776
2017-06-14T09:46:37.994Z,80128
2017-06-14T09:47:38.046Z,77952
2017-06-14T09:48:38.201Z,74560
2017-06-14T09:49:38.024Z,70400
2017-06-14T09:50:37.969Z,67264
2017-06-14T09:51:37.977Z,65440
2017-06-14T09:52:37.957Z,69888
2017-06-14T09:53:37.942Z,73728
2017-06-14T09:54:37.940Z,75072
2017-06-14T09:55:37.635Z,75392
2017-06-14T09:56:38.224Z,75328
2017-06-14T09:57:37.942Z,75936
2017-06-14T09:58:37.911Z,76256
2017-06-14T09:59:37.896Z,76736
2017-06-14T10:00:37.999Z,80064
2017-06-14T10:01:37.934Z,85536
2017-06-14T10:02:37.886Z,91712
2017-06-14T10:03:37.869Z,95808
2017-06-14T10:04:37.868Z,95168
2017-06-14T10:05:37.860Z,93248
2017-06-14T10:06:37.858Z,89984
2017-06-14T10:07:37.852Z,86976
2017-06-14T10:08:37.877Z,83776
2017-06-14T10:09:37.837Z,86656
2017-06-14T10:10:37.826Z,89280
2017-06-14T10:11:37.823Z,91904
2017-06-14T10:12:37.818Z,92928
2017-06-14T10:13:37.795Z,91520
2017-06-14T10:14:37.794Z,88704
2017-06-14T10:15:37.786Z,84576
2017-06-14T10:16:37.781Z,79680
2017-06-14T10:17:37.764Z,86080
2017-06-14T10:18:37.799Z,88992
2017-06-14T10:19:37.756Z,95680
2017-06-14T10:20:37.459Z,100928
2017-06-14T10:21:37.751Z,100096
2017-06-14T10:22:37.796Z,101440
2017-06-14T10:23:37.725Z,93472
2017-06-14T10:24:37.719Z,89536
2017-06-14T10:25:37.718Z,85088
2017-06-14T10:26:37.709Z,84672
2017-06-14T10:27:37.698Z,86272
2017-06-14T10:28:37.746Z,90592
2017-06-14T10:29:37.700Z,94048
2017-06-14T10:30:37.731Z,98176
2017-06-14T10:31:37.722Z,98880
2017-06-14T10:32:37.662Z,97824
2017-06-14T10:33:37.659Z,97024
2017-06-14T10:34:37.675Z,96384
2017-06-14T10:35:37.645Z,96416
2017-06-14T10:36:37.658Z,96960
2017-06-14T10:37:37.632Z,99584
2017-06-14T10:38:37.321Z,98880
2017-06-14T10:39:37.425Z,102208
2017-06-14T10:40:37.618Z,101152
2017-06-14T10:41:37.736Z,96160
2017-06-14T10:42:37.596Z,94016
2017-06-14T10:43:37.587Z,92544
2017-06-14T10:44:37.587Z,95008
2017-06-14T10:45:37.582Z,96832
2017-06-14T10:46:37.579Z,99520
2017-06-14T10:47:37.565Z,101728
2017-06-14T10:48:37.334Z,103744
2017-06-14T10:49:37.541Z,102976
2017-06-14T10:50:37.536Z,100384
2017-06-14T10:51:37.681Z,98528
2017-06-14T10:52:37.229Z,92704
2017-06-14T10:53:37.518Z,92320
2017-06-14T10:54:36.905Z,94208
2017-06-14T10:55:37.508Z,95904
2017-06-14T10:56:37.201Z,98624
2017-06-14T10:57:37.484Z,100032
2017-06-14T10:58:37.478Z,100480
2017-06-14T10:59:37.473Z,98848
2017-06-14T11:00:37.463Z,95712
2017-06-14T11:01:37.458Z,95104
2017-06-14T11:02:37.606Z,65088
2017-06-14T11:03:37.444Z,19840
2017-06-14T11:04:37.444Z,8604
2017-06-14T11:05:37.433Z,8320
2017-06-14T11:06:37.423Z,8500
2017-06-14T11:07:37.413Z,34112
2017-06-14T11:08:37.432Z,73408
2017-06-14T11:09:37.397Z,85824
2017-06-14T11:10:37.389Z,84032
2017-06-14T11:11:37.376Z,67168
2017-06-14T11:12:37.382Z,38112
2017-06-14T11:13:37.350Z,20192
2017-06-14T11:14:37.342Z,22720
2017-06-14T11:15:37.342Z,27168
2017-06-14T11:16:37.378Z,26912
2017-06-14T11:17:37.373Z,14500
2017-06-14T11:18:37.008Z,7888
2017-06-14T11:19:37.302Z,7448
2017-06-14T11:20:37.292Z,7168
2017-06-14T11:21:37.282Z,7024
2017-06-14T11:22:37.296Z,6920
2017-06-14T11:23:37.254Z,6884
2017-06-14T11:24:37.235Z,6856
2017-06-14T11:25:37.273Z,6684
2017-06-14T11:26:37.209Z,6692
2017-06-14T11:27:37.254Z,6704
2017-06-14T11:28:37.184Z,6640
2017-06-14T11:29:36.874Z,6560
2017-06-14T11:30:36.856Z,6612
2017-06-14T11:31:37.142Z,6592
2017-06-14T11:32:37.177Z,6444
2017-06-14T11:33:37.112Z,6300
2017-06-14T11:34:37.112Z,6152
2017-06-14T11:35:37.085Z,6016
2017-06-14T11:36:37.076Z,5836
2017-06-14T11:37:37.051Z,5648
2017-06-14T11:38:37.044Z,5548
2017-06-14T11:39:37.014Z,5456
2017-06-14T11:40:37.014Z,5380
2017-06-14T11:41:36.992Z,5280
2017-06-14T11:42:36.973Z,5236
2017-06-14T11:43:36.960Z,5212
2017-06-14T11:44:37.000Z,5208
2017-06-14T11:45:36.957Z,5228
2017-06-14T11:46:36.925Z,5264
2017-06-14T11:47:36.605Z,5304
2017-06-14T11:48:36.580Z,5348
2017-06-14T11:49:36.869Z,5384
2017-06-14T11:50:36.910Z,5420
2017-06-14T11:51:36.844Z,5484
2017-06-14T11:52:36.880Z,5540
2017-06-14T11:53:36.823Z,5552
2017-06-14T11:54:36.799Z,5520
2017-06-14T11:55:36.773Z,5528
2017-06-14T11:56:36.763Z,5576
2017-06-14T11:57:36.425Z,5548
2017-06-14T11:58:36.754Z,5536
2017-06-14T11:59:36.712Z,5580
2017-06-14T12:00:36.693Z,5640
2017-06-14T12:01:36.367Z,5580
2017-06-14T12:02:36.358Z,5536
2017-06-14T12:03:36.369Z,5512
2017-06-14T12:04:36.635Z,5432
2017-06-14T12:05:36.652Z,5328
2017-06-14T12:06:36.589Z,5268
2017-06-14T12:07:36.582Z,5276
2017-06-14T12:08:36.545Z,5228
2017-06-14T12:09:36.226Z,5148
2017-06-14T12:10:36.530Z,5124
2017-06-14T12:11:36.622Z,5120
2017-06-14T12:12:36.480Z,5156
2017-06-14T12:13:36.461Z,5120
2017-06-14T12:14:36.453Z,5068
2017-06-14T12:15:36.137Z,5028
2017-06-14T12:16:36.455Z,5020
2017-06-14T12:17:36.393Z,4976
2017-06-14T12:18:36.372Z,4992
2017-06-14T12:19:36.350Z,4996
2017-06-14T12:20:36.393Z,5020
2017-06-14T12:21:36.326Z,5016
2017-06-14T12:22:36.300Z,4956
2017-06-14T12:23:36.301Z,5024
2017-06-14T12:24:36.266Z,5012
2017-06-14T12:25:36.251Z,4988
2017-06-14T12:26:36.239Z,4932
2017-06-14T12:27:36.234Z,4828
2017-06-14T12:28:36.202Z,4820
2017-06-14T12:29:35.880Z,4772
2017-06-14T12:30:35.873Z,4708
2017-06-14T12:31:35.842Z,4700
2017-06-14T12:32:36.126Z,4688
2017-06-14T12:33:35.811Z,4592
2017-06-14T12:34:35.796Z,4548
2017-06-14T12:35:36.080Z,4444
2017-06-14T12:36:36.069Z,4360
2017-06-14T12:37:36.042Z,4248
2017-06-14T12:38:35.725Z,4160
2017-06-14T12:39:36.250Z,4112
2017-06-14T12:40:35.985Z,4116
2017-06-14T12:41:35.975Z,4080
2017-06-14T12:42:35.962Z,4072
2017-06-14T12:43:35.986Z,4080
2017-06-14T12:44:35.921Z,4108
2017-06-14T12:45:35.901Z,4156
2017-06-14T12:46:35.880Z,4232
2017-06-14T12:47:35.876Z,4312
2017-06-14T12:48:35.550Z,4320
2017-06-14T12:49:35.834Z,4484
2017-06-14T12:50:36.028Z,4588
2017-06-14T12:51:35.795Z,4720
2017-06-14T12:52:35.787Z,4708
2017-06-14T12:53:35.764Z,4720
2017-06-14T12:54:35.741Z,4732
2017-06-14T12:55:35.745Z,4736
2017-06-14T12:56:35.737Z,4728
2017-06-14T12:57:35.699Z,4772
2017-06-14T12:58:35.680Z,4748
2017-06-14T12:59:35.419Z,4660
2017-06-14T13:00:35.661Z,4588
2017-06-14T13:01:35.626Z,4560
2017-06-14T13:02:35.306Z,4560
2017-06-14T13:03:35.605Z,4568
2017-06-14T13:04:35.571Z,4568
2017-06-14T13:05:35.551Z,4580
2017-06-14T13:06:35.539Z,4604
2017-06-14T13:07:35.224Z,4620
2017-06-14T13:08:35.507Z,4600
2017-06-14T13:09:35.482Z,4584
2017-06-14T13:10:35.469Z,4576
2017-06-14T13:11:35.467Z,4548
2017-06-14T13:12:35.434Z,4608
2017-06-14T13:13:35.417Z,4656
2017-06-14T13:14:35.444Z,4728
2017-06-14T13:15:35.383Z,4792
2017-06-14T13:16:35.372Z,4808
2017-06-14T13:17:35.346Z,4796
2017-06-14T13:18:35.626Z,4864
2017-06-14T13:19:35.313Z,4872
2017-06-14T13:20:34.994Z,4868
2017-06-14T13:21:35.285Z,4880
2017-06-14T13:22:34.960Z,4908